Time;durP1;ratioP1;P1;durP2;ratioP2;P2;SDS_P1;SDS_P2;PMS_P1;PMS_P2;Temp;Humidity;BMP_temperature;BMP_pressure;BME280_temperature;BME280_humidity;BME280_pressure;Samples;Min_cycle;Max_cycle;Signal;HPM_P1;HPM_P2
2022/03/02 00:00:39;;;;;;;15.57;11.67;;;3.30;1.00;;;;;;5011752;28;20454;-82
2022/03/02 00:03:04;;;;;;;16.83;11.53;;;3.20;1.00;;;;;;5011334;28;20179;-81
2022/03/02 00:05:30;;;;;;;16.90;12.20;;;3.20;1.00;;;;;;5012364;28;20232;-81
2022/03/02 00:07:56;;;;;;;20.20;12.27;;;3.30;1.00;;;;;;5012437;28;20205;-81
2022/03/02 00:10:22;;;;;;;20.00;11.70;;;3.20;1.00;;;;;;5012443;28;20175;-82
2022/03/02 00:12:47;;;;;;;15.83;10.90;;;3.00;1.00;;;;;;5011886;28;20194;-82
2022/03/02 00:15:13;;;;;;;16.30;10.60;;;3.00;1.00;;;;;;5011773;28;20467;-82
2022/03/02 00:17:38;;;;;;;14.50;10.60;;;3.00;1.00;;;;;;5011930;28;20734;-83
2022/03/02 00:20:05;;;;;;;17.03;10.20;;;3.00;1.00;;;;;;5012248;28;20261;-83
2022/03/02 00:22:31;;;;;;;17.87;11.50;;;2.90;1.00;;;;;;4994307;28;20187;-82
2022/03/02 00:24:56;;;;;;;15.27;11.33;;;2.90;1.00;;;;;;5012026;28;20797;-84
2022/03/02 00:27:25;;;;;;;14.80;10.13;;;2.90;1.00;;;;;;4994136;28;20232;-83
2022/03/02 00:29:51;;;;;;;19.10;11.13;;;2.90;1.00;;;;;;5012241;28;20254;-82
2022/03/02 00:32:17;;;;;;;19.70;12.33;;;2.90;1.00;;;;;;5011820;28;20426;-81
2022/03/02 00:34:44;;;;;;;16.40;10.87;;;3.00;1.00;;;;;;5012084;28;20424;-82
2022/03/02 00:37:09;;;;;;;22.90;13.73;;;3.00;1.00;;;;;;4994198;28;20191;-82
2022/03/02 00:39:35;;;;;;;21.57;11.83;;;3.10;1.00;;;;;;5010677;28;20516;-83
2022/03/02 00:42:01;;;;;;;19.93;11.27;;;3.10;1.00;;;;;;5011443;28;20201;-83
2022/03/02 00:44:26;;;;;;;21.13;11.67;;;3.00;1.00;;;;;;5011652;28;20167;-83
2022/03/02 00:46:52;;;;;;;18.00;12.27;;;2.90;1.00;;;;;;5012004;28;20171;-83
2022/03/02 00:49:18;;;;;;;18.17;11.20;;;3.00;1.00;;;;;;5011964;28;20186;-82
2022/03/02 00:51:44;;;;;;;22.00;11.80;;;3.10;1.00;;;;;;5011939;28;20172;-83
2022/03/02 00:54:10;;;;;;;23.00;12.60;;;3.10;1.00;;;;;;5011775;28;20237;-84
2022/03/02 00:56:36;;;;;;;24.43;13.30;;;3.10;1.00;;;;;;5011397;28;20254;-84
2022/03/02 00:59:02;;;;;;;17.07;11.40;;;3.20;1.00;;;;;;5011750;28;20422;-82
2022/03/02 01:01:28;;;;;;;16.67;10.83;;;3.30;1.00;;;;;;5011778;28;20237;-82
2022/03/02 01:03:54;;;;;;;21.40;12.07;;;3.30;1.00;;;;;;5011665;28;20776;-81
2022/03/02 01:06:19;;;;;;;21.07;12.50;;;3.20;1.00;;;;;;5011695;28;20425;-81
2022/03/02 01:08:46;;;;;;;16.57;11.20;;;3.20;1.00;;;;;;5011783;28;20178;-81
2022/03/02 01:11:12;;;;;;;18.80;11.47;;;3.20;1.00;;;;;;5011417;28;20174;-80
2022/03/02 01:13:37;;;;;;;21.77;12.00;;;3.20;1.00;;;;;;5011626;28;20421;-82
2022/03/02 01:16:03;;;;;;;19.30;11.80;;;3.20;1.00;;;;;;5011718;28;20171;-81
2022/03/02 01:18:29;;;;;;;19.70;13.70;;;3.10;1.00;;;;;;4993815;28;20214;-80
2022/03/02 01:20:54;;;;;;;21.07;12.40;;;3.00;1.00;;;;;;5011701;28;20436;-81
2022/03/02 01:23:20;;;;;;;18.40;12.23;;;2.90;1.00;;;;;;5011527;28;20179;-81
2022/03/02 01:25:45;;;;;;;21.60;12.10;;;2.90;1.00;;;;;;5011704;28;20234;-81
2022/03/02 01:28:11;;;;;;;22.47;11.63;;;2.90;1.00;;;;;;5011091;28;20174;-81
2022/03/02 01:30:36;;;;;;;17.60;11.27;;;2.80;1.00;;;;;;5011544;28;20183;-81
2022/03/02 01:33:02;;;;;;;19.33;12.00;;;2.70;1.00;;;;;;4993909;28;20171;-82
2022/03/02 01:35:27;;;;;;;17.37;12.00;;;2.60;1.00;;;;;;5011443;28;20172;-81
2022/03/02 01:37:53;;;;;;;18.20;12.37;;;2.50;2.40;;;;;;5011376;28;20273;-81
2022/03/02 01:40:18;;;;;;;17.83;12.00;;;2.50;19.10;;;;;;4993843;28;20267;-82
2022/03/02 01:42:44;;;;;;;18.20;11.67;;;2.50;35.70;;;;;;5011117;28;20182;-82
2022/03/02 01:45:13;;;;;;;17.73;12.27;;;2.50;34.50;;;;;;5011156;28;20196;-82
2022/03/02 01:47:39;;;;;;;18.50;12.73;;;2.60;22.80;;;;;;5010982;28;20468;-82
2022/03/02 01:50:09;;;;;;;17.67;12.00;;;2.60;12.30;;;;;;5011128;28;20465;-82
2022/03/02 01:52:34;;;;;;;21.90;12.83;;;2.50;1.00;;;;;;5011077;28;20472;-82
2022/03/02 01:55:00;;;;;;;21.03;13.27;;;2.60;10.10;;;;;;5011250;28;20422;-82
2022/03/02 01:57:27;;;;;;;22.83;13.50;;;2.60;13.90;;;;;;5012356;28;20246;-81
2022/03/02 01:59:52;;;;;;;20.83;13.83;;;2.60;30.60;;;;;;5014692;28;20425;-81
2022/03/02 02:02:19;;;;;;;23.90;12.90;;;2.50;46.10;;;;;;5014592;28;20933;-81
2022/03/02 02:04:44;;;;;;;17.70;12.10;;;2.50;34.10;;;;;;5014745;28;20168;-82
2022/03/02 02:07:10;;;;;;;17.27;11.10;;;2.60;42.70;;;;;;5014565;28;20426;-82
2022/03/02 02:09:35;;;;;;;19.53;12.77;;;2.50;39.00;;;;;;5014670;28;20175;-82
2022/03/02 02:12:01;;;;;;;17.40;11.77;;;2.50;32.90;;;;;;5014205;28;20175;-81
2022/03/02 02:14:26;;;;;;;18.10;11.37;;;2.50;43.10;;;;;;4996856;28;20182;-81
2022/03/02 02:16:52;;;;;;;18.80;11.57;;;2.40;38.60;;;;;;5014319;28;20214;-81
2022/03/02 02:19:18;;;;;;;21.13;12.70;;;2.40;59.60;;;;;;5014114;28;20946;-82
2022/03/02 02:21:46;;;;;;;17.67;12.40;;;2.40;94.60;;;;;;5014441;28;20167;-82
2022/03/02 02:24:12;;;;;;;22.27;12.00;;;2.40;99.90;;;;;;5014267;28;20268;-81
2022/03/02 02:26:37;;;;;;;18.40;10.63;;;2.20;99.90;;;;;;5013748;28;20773;-82
2022/03/02 02:29:04;;;;;;;25.13;13.63;;;2.40;99.90;;;;;;5013735;28;20421;-82
2022/03/02 02:31:30;;;;;;;16.23;10.40;;;2.40;97.60;;;;;;4996565;28;20175;-81
2022/03/02 02:33:56;;;;;;;19.43;11.80;;;2.40;99.90;;;;;;5014101;28;20774;-82
2022/03/02 02:36:22;;;;;;;18.53;12.07;;;2.40;72.80;;;;;;4996381;28;20179;-81
2022/03/02 02:38:48;;;;;;;15.20;11.10;;;2.30;57.20;;;;;;5014226;28;20526;-82
2022/03/02 02:41:15;;;;;;;17.27;10.97;;;2.40;73.00;;;;;;5013654;28;20174;-81
2022/03/02 02:43:42;;;;;;;19.00;11.27;;;2.30;82.10;;;;;;5013813;28;20600;-82
2022/03/02 02:46:09;;;;;;;19.20;11.73;;;;;;;;;;4996345;28;20422;-81
2022/03/02 02:48:34;;;;;;;14.33;10.20;;;2.30;43.30;;;;;;5013883;28;20501;-82
2022/03/02 02:51:00;;;;;;;18.80;11.73;;;2.30;40.00;;;;;;5013845;28;20561;-81
2022/03/02 02:53:25;;;;;;;19.13;12.03;;;2.30;1.00;;;;;;5013800;28;20627;-82
2022/03/02 02:55:52;;;;;;;15.10;11.50;;;2.30;1.00;;;;;;4996224;28;20810;-81
2022/03/02 02:58:18;;;;;;;19.03;12.03;;;2.30;1.00;;;;;;5013451;28;20539;-81
2022/03/02 03:00:47;;;;;;;15.80;12.03;;;2.30;1.00;;;;;;5013578;28;20413;-82
2022/03/02 03:03:13;;;;;;;13.57;10.73;;;2.30;1.00;;;;;;5013548;28;20179;-82
2022/03/02 03:05:39;;;;;;;18.77;11.67;;;2.40;1.00;;;;;;5013531;28;20418;-82
2022/03/02 03:08:07;;;;;;;15.00;11.37;;;2.40;1.00;;;;;;5012741;28;20415;-81
2022/03/02 03:10:33;;;;;;;18.00;12.77;;;2.40;1.00;;;;;;4995545;28;20414;-82
2022/03/02 03:12:59;;;;;;;23.70;14.03;;;2.40;1.00;;;;;;4995473;28;20480;-82
2022/03/02 03:15:25;;;;;;;15.77;9.80;;;2.50;1.00;;;;;;5013264;28;20167;-82
2022/03/02 03:17:52;;;;;;;17.30;12.17;;;2.50;1.00;;;;;;5013331;28;20216;-80
2022/03/02 03:20:21;;;;;;;15.30;12.30;;;2.50;99.90;;;;;;5013005;28;20518;-81
2022/03/02 03:22:47;;;;;;;19.43;10.50;;;2.40;1.00;;;;;;5013280;28;20857;-81
2022/03/02 03:25:13;;;;;;;14.87;10.13;;;2.40;1.00;;;;;;5012980;28;20416;-81
2022/03/02 03:27:40;;;;;;;17.30;10.70;;;2.30;1.00;;;;;;5012769;28;20435;-83
2022/03/02 03:30:08;;;;;;;15.97;9.60;;;2.20;1.00;;;;;;5012948;28;20410;-81
2022/03/02 03:32:35;;;;;;;18.93;10.63;;;2.10;1.00;;;;;;5012941;28;20418;-81
2022/03/02 03:35:01;;;;;;;15.70;11.37;;;2.10;1.00;;;;;;5012936;28;20410;-82
2022/03/02 03:37:27;;;;;;;21.77;11.63;;;2.00;1.00;;;;;;5012858;28;20454;-83
2022/03/02 03:39:53;;;;;;;16.07;10.30;;;2.00;1.00;;;;;;4995367;28;20410;-83
2022/03/02 03:42:18;;;;;;;14.57;10.07;;;1.90;1.00;;;;;;5012615;28;20493;-82
2022/03/02 03:44:44;;;;;;;19.30;11.43;;;1.90;1.00;;;;;;5012869;28;20358;-82
2022/03/02 03:47:09;;;;;;;18.27;12.10;;;1.80;1.00;;;;;;5012815;28;20174;-83
2022/03/02 03:49:35;;;;;;;15.27;10.13;;;1.80;1.00;;;;;;5012547;28;20163;-82
2022/03/02 03:52:01;;;;;;;18.67;11.73;;;1.80;1.00;;;;;;5012829;28;20181;-82
2022/03/02 03:54:26;;;;;;;16.67;9.90;;;1.80;1.00;;;;;;5012556;28;20650;-82
2022/03/02 03:56:52;;;;;;;22.10;11.37;;;1.80;11.70;;;;;;5012418;28;20246;-82
2022/03/02 03:59:17;;;;;;;17.50;10.60;;;1.70;1.00;;;;;;5012441;28;20237;-83
2022/03/02 04:01:43;;;;;;;16.30;10.83;;;1.80;1.00;;;;;;5012337;28;20655;-82
2022/03/02 04:04:08;;;;;;;16.73;10.63;;;1.80;20.30;;;;;;5012529;28;20168;-82
2022/03/02 04:06:34;;;;;;;16.83;12.07;;;1.80;9.10;;;;;;5012490;28;20186;-82
2022/03/02 04:08:59;;;;;;;20.87;12.70;;;1.80;1.00;;;;;;5012416;28;20168;-81
2022/03/02 04:11:25;;;;;;;19.00;9.70;;;1.80;8.50;;;;;;5012029;28;20664;-83
2022/03/02 04:13:53;;;;;;;22.07;11.47;;;1.90;5.10;;;;;;5012315;28;20179;-81
2022/03/02 04:16:19;;;;;;;16.33;9.80;;;1.90;1.00;;;;;;5012220;28;20175;-82
2022/03/02 04:18:45;;;;;;;20.43;11.00;;;1.80;1.40;;;;;;5011878;28;20882;-82
2022/03/02 04:21:10;;;;;;;18.23;11.30;;;1.70;24.60;;;;;;5012352;28;20531;-81
2022/03/02 04:23:36;;;;;;;17.47;12.60;;;1.60;36.60;;;;;;5013480;28;20180;-80
2022/03/02 04:26:02;;;;;;;17.87;11.47;;;1.70;28.00;;;;;;5012975;28;20202;-82
2022/03/02 04:28:29;;;;;;;14.30;9.67;;;1.60;20.20;;;;;;5013121;28;20277;-82
2022/03/02 04:30:54;;;;;;;15.20;10.40;;;1.60;27.90;;;;;;4995718;28;20952;-82
2022/03/02 04:33:20;;;;;;;15.67;10.33;;;1.60;19.20;;;;;;5013429;28;20422;-82
2022/03/02 04:35:45;;;;;;;20.27;13.17;;;1.60;21.80;;;;;;5013228;28;20206;-82
2022/03/02 04:38:11;;;;;;;15.87;10.27;;;1.60;21.00;;;;;;5013071;28;20698;-83
2022/03/02 04:40:37;;;;;;;16.50;10.80;;;1.60;19.00;;;;;;4995182;28;20172;-81
2022/03/02 04:43:02;;;;;;;18.23;9.70;;;1.40;26.00;;;;;;5013212;28;20172;-83
2022/03/02 04:45:28;;;;;;;14.17;10.43;;;1.30;74.50;;;;;;5012938;28;20221;-82
2022/03/02 04:47:55;;;;;;;13.80;10.60;;;;;;;;;;5013036;28;20207;-83
2022/03/02 04:50:22;;;;;;;22.90;10.77;;;1.20;99.90;;;;;;5012921;28;20167;-83
2022/03/02 04:52:49;;;;;;;13.77;10.37;;;1.20;93.00;;;;;;5012959;28;20449;-83
2022/03/02 04:55:16;;;;;;;22.10;12.00;;;1.10;94.20;;;;;;5012961;28;20418;-82
2022/03/02 04:57:53;;;;;;;14.97;10.40;;;1.00;92.00;;;;;;5012531;28;20469;-82
2022/03/02 05:00:22;;;;;;;11.90;9.67;;;1.10;99.90;;;;;;5012774;28;20436;-82
2022/03/02 05:02:49;;;;;;;17.67;11.07;;;1.00;99.90;;;;;;5012877;28;20422;-81
2022/03/02 05:05:16;;;;;;;19.00;11.60;;;1.00;99.90;;;;;;5012865;28;20414;-81
2022/03/02 05:07:43;;;;;;;18.33;12.03;;;1.10;99.90;;;;;;5012824;28;20513;-82
2022/03/02 05:10:10;;;;;;;18.10;10.70;;;1.00;99.90;;;;;;5012829;28;20868;-81
2022/03/02 05:12:35;;;;;;;14.60;10.40;;;0.90;99.90;;;;;;5012382;28;20792;-82
2022/03/02 05:15:02;;;;;;;16.77;10.87;;;0.90;99.90;;;;;;5012815;28;20408;-82
2022/03/02 05:17:28;;;;;;;18.43;10.80;;;1.00;99.90;;;;;;5012718;28;20248;-82
2022/03/02 05:19:54;;;;;;;17.23;11.00;;;0.90;99.90;;;;;;5012698;28;20458;-82
2022/03/02 05:22:19;;;;;;;17.70;11.83;;;0.80;99.90;;;;;;5012688;28;20202;-81
2022/03/02 05:24:47;;;;;;;16.90;11.30;;;0.70;99.90;;;;;;4994960;28;20477;-81
2022/03/02 05:27:13;;;;;;;15.50;11.67;;;0.60;99.90;;;;;;5012332;28;20217;-82
2022/03/02 05:29:39;;;;;;;17.43;10.80;;;0.70;99.90;;;;;;4995005;28;20434;-82
2022/03/02 05:32:05;;;;;;;15.43;10.47;;;0.70;99.90;;;;;;5013963;28;20306;-82
2022/03/02 05:34:31;;;;;;;19.30;11.30;;;0.60;99.90;;;;;;5016345;28;20190;-83
2022/03/02 05:36:57;;;;;;;15.90;10.47;;;0.50;99.90;;;;;;5016273;28;20465;-81
2022/03/02 05:39:23;;;;;;;19.53;10.87;;;;;;;;;;5016233;28;20902;-82
2022/03/02 05:41:49;;;;;;;22.07;11.67;;;0.40;99.90;;;;;;5015818;28;20529;-82
2022/03/02 05:44:15;;;;;;;20.50;13.10;;;0.40;99.90;;;;;;5016316;28;20421;-83
2022/03/02 05:46:40;;;;;;;20.30;11.33;;;0.40;99.90;;;;;;5016098;28;20429;-82
2022/03/02 05:49:08;;;;;;;15.00;10.00;;;0.30;99.90;;;;;;5016106;28;20262;-82
2022/03/02 05:51:33;;;;;;;14.97;10.70;;;0.20;99.90;;;;;;5015943;28;20163;-82
2022/03/02 05:53:59;;;;;;;18.90;12.40;;;0.30;99.90;;;;;;5015814;28;20418;-81
2022/03/02 05:56:25;;;;;;;17.10;10.87;;;0.20;99.90;;;;;;5015640;28;20217;-80
2022/03/02 05:58:51;;;;;;;18.63;12.73;;;0.40;99.90;;;;;;5015921;28;20276;-82
2022/03/02 06:01:17;;;;;;;19.50;11.10;;;0.60;99.90;;;;;;5015743;28;20175;-82
2022/03/02 06:03:44;;;;;;;14.47;12.23;;;0.80;99.90;;;;;;5014448;28;20436;-81
2022/03/02 06:06:10;;;;;;;20.67;12.13;;;0.90;99.90;;;;;;5034136;28;20232;-82
2022/03/02 06:08:35;;;;;;;23.40;12.60;;;0.70;99.90;;;;;;5017194;28;20432;-82
2022/03/02 06:11:02;;;;;;;15.50;9.33;;;0.60;99.90;;;;;;5034409;28;21108;-82
2022/03/02 06:13:27;;;;;;;22.53;12.20;;;0.50;99.90;;;;;;5028541;28;20538;-82
2022/03/02 06:15:53;;;;;;;19.00;11.40;;;0.40;99.90;;;;;;5016085;28;20424;-82
2022/03/02 06:18:19;;;;;;;16.43;10.70;;;0.40;99.90;;;;;;5034019;28;20557;-81
2022/03/02 06:20:50;;;;;;;16.20;10.13;;;0.50;99.90;;;;;;5033804;28;20611;-80
2022/03/02 06:23:16;;;;;;;19.67;9.57;;;0.50;99.90;;;;;;5034824;28;20184;-81
2022/03/02 06:25:42;;;;;;;16.87;10.27;;;0.50;99.90;;;;;;5034789;28;20413;-82
2022/03/02 06:28:07;;;;;;;17.00;9.97;;;0.50;99.90;;;;;;5017497;28;20784;-82
2022/03/02 06:30:33;;;;;;;18.87;11.70;;;0.50;99.90;;;;;;5035288;28;20257;-82
2022/03/02 06:32:58;;;;;;;15.97;12.37;;;0.50;99.90;;;;;;5035093;28;20206;-83
2022/03/02 06:35:24;;;;;;;18.00;13.37;;;0.60;99.90;;;;;;5035026;28;20174;-82
2022/03/02 06:37:50;;;;;;;19.00;11.53;;;0.50;99.90;;;;;;5034755;28;20257;-82
2022/03/02 06:40:15;;;;;;;16.73;10.47;;;0.50;99.90;;;;;;5034578;28;20509;-81
2022/03/02 06:43:07;;;;;;;15.70;11.00;;;0.60;99.90;;;;;;5034564;28;20231;-82
2022/03/02 06:45:54;;;;;;;16.77;11.03;;;0.60;99.90;;;;;;5017385;28;20646;-80
2022/03/02 06:48:41;;;;;;;18.73;11.57;;;0.80;99.90;;;;;;5034679;28;20518;-81
2022/03/02 06:51:07;;;;;;;26.33;12.77;;;0.90;99.90;;;;;;5034107;28;20424;-83
2022/03/02 06:53:36;;;;;;;19.77;13.80;;;1.10;99.90;;;;;;5034677;28;20510;-80
2022/03/02 06:56:06;;;;;;;24.10;15.30;;;2.20;99.90;;;;;;5034221;28;20870;-82
2022/03/02 06:58:55;;;;;;;18.37;13.80;;;3.60;99.90;;;;;;5034492;28;21128;-82
2022/03/02 07:01:30;;;;;;;18.77;11.67;;;4.00;1.00;;;;;;5034660;28;20401;-82
2022/03/02 07:03:59;;;;;;;15.97;11.37;;;4.30;1.00;;;;;;5034483;28;20409;-82
2022/03/02 07:06:26;;;;;;;20.10;10.43;;;5.00;97.10;;;;;;5034399;28;20466;-83
2022/03/02 07:08:52;;;;;;;13.73;10.50;;;5.80;1.00;;;;;;5034207;28;20498;-82
2022/03/02 07:11:19;;;;;;;14.10;8.93;;;6.10;1.00;;;;;;5034191;28;20413;-82
2022/03/02 07:13:46;;;;;;;15.30;10.10;;;6.80;1.00;;;;;;5016684;28;20440;-83
2022/03/02 07:16:16;;;;;;;16.83;11.07;;;7.30;99.90;;;;;;5034311;28;20930;-83
2022/03/02 07:18:42;;;;;;;14.93;10.87;;;7.50;99.90;;;;;;5033952;28;20467;-81
2022/03/02 07:21:13;;;;;;;13.57;9.80;;;7.60;99.90;;;;;;5034298;28;20409;-82
2022/03/02 07:23:46;;;;;;;15.03;10.17;;;7.90;99.90;;;;;;5034075;28;20414;-83
2022/03/02 07:26:12;;;;;;;15.03;11.00;;;8.30;99.90;;;;;;5033882;28;20847;-83
2022/03/02 07:28:39;;;;;;;14.73;10.83;;;8.50;99.90;;;;;;5033899;28;20756;-83
2022/03/02 07:31:07;;;;;;;16.50;11.47;;;8.70;99.90;;;;;;5016243;28;20922;-83
2022/03/02 07:33:37;;;;;;;15.37;11.47;;;8.90;99.90;;;;;;5016086;28;20416;-83
2022/03/02 07:36:03;;;;;;;12.67;10.03;;;9.40;99.90;;;;;;5033975;28;20401;-83
2022/03/02 07:38:28;;;;;;;14.33;10.90;;;9.80;99.90;;;;;;5033932;28;20553;-83
2022/03/02 07:40:54;;;;;;;13.67;10.90;;;;;;;;;;5033311;28;20182;-82
2022/03/02 07:43:21;;;;;;;14.47;11.07;;;;;;;;;;5033793;28;20312;-81
2022/03/02 07:45:47;;;;;;;14.80;10.97;;;;;;;;;;5033598;28;20417;-81
2022/03/02 07:48:14;;;;;;;15.50;10.60;;;;;;;;;;5015853;28;20782;-81
2022/03/02 07:50:43;;;;;;;20.10;12.10;;;;;;;;;;5033603;28;20422;-81
2022/03/02 07:53:09;;;;;;;14.10;11.93;;;;;;;;;;5033388;28;20417;-81
2022/03/02 07:55:37;;;;;;;14.33;11.00;;;;;;;;;;5032386;28;20492;-82
2022/03/02 07:58:06;;;;;;;12.67;10.50;;;;;;;;;;5033317;28;20507;-82
2022/03/02 08:00:32;;;;;;;13.57;10.17;;;;;;;;;;5033351;28;20515;-82
2022/03/02 08:02:59;;;;;;;16.40;12.30;;;;;;;;;;5033213;28;20448;-82
2022/03/02 08:05:28;;;;;;;12.60;10.93;;;;;;;;;;5033075;28;20514;-82
2022/03/02 08:07:54;;;;;;;15.43;11.53;;;;;;;;;;5033146;28;20411;-82
2022/03/02 08:10:19;;;;;;;16.40;11.13;;;;;;;;;;5032950;28;20881;-81
2022/03/02 08:12:46;;;;;;;13.97;10.90;;;;;;;;;;5033221;28;20799;-81
2022/03/02 08:15:12;;;;;;;11.63;9.23;;;;;;;;;;5033198;28;20277;-81
2022/03/02 08:17:38;;;;;;;13.47;10.80;;;;;;;;;;5032990;28;20543;-82
2022/03/02 08:20:05;;;;;;;15.73;10.43;;;;;;;;;;5032757;28;20475;-82
2022/03/02 08:22:31;;;;;;;12.10;9.53;;;;;;;;;;5033037;28;20407;-81
2022/03/02 08:25:04;;;;;;;15.27;11.37;;;;;;;;;;5032808;28;20906;-81
2022/03/02 08:27:30;;;;;;;12.53;10.10;;;;;;;;;;5032915;28;20474;-82
2022/03/02 08:29:56;;;;;;;12.90;10.27;;;;;;;;;;5032887;28;20425;-83
2022/03/02 08:32:24;;;;;;;12.93;9.37;;;14.40;1.00;;;;;;5032840;28;20460;-82
2022/03/02 08:34:51;;;;;;;11.33;8.97;;;14.00;1.00;;;;;;5032749;28;20407;-84
2022/03/02 08:37:18;;;;;;;11.90;9.50;;;14.60;1.00;;;;;;5032751;28;20828;-83
2022/03/02 08:39:44;;;;;;;10.90;9.40;;;14.00;1.00;;;;;;5032669;28;20411;-82
2022/03/02 08:42:11;;;;;;;12.07;10.73;;;13.80;1.00;;;;;;5032509;28;20789;-83
2022/03/02 08:44:38;;;;;;;10.67;9.50;;;14.30;1.00;;;;;;5032956;28;20418;-84
2022/03/02 08:47:04;;;;;;;11.53;10.30;;;14.40;1.00;;;;;;5032689;28;20523;-83
2022/03/02 08:49:29;;;;;;;11.33;10.20;;;14.50;1.00;;;;;;5032726;28;20780;-84
2022/03/02 08:51:56;;;;;;;13.87;10.47;;;15.00;1.00;;;;;;5032745;28;20420;-82
2022/03/02 08:54:23;;;;;;;14.60;9.77;;;15.00;1.00;;;;;;5032643;28;20179;-82
2022/03/02 08:56:50;;;;;;;11.40;10.30;;;14.90;1.00;;;;;;5032254;28;20411;-83
2022/03/02 08:59:17;;;;;;;12.73;8.83;;;15.70;1.00;;;;;;5032649;28;20424;-81
2022/03/02 09:01:50;;;;;;;12.77;9.80;;;15.90;1.00;;;;;;5032721;28;20413;-81
2022/03/02 09:04:17;;;;;;;11.83;9.90;;;15.80;1.00;;;;;;5032670;28;20428;-82
2022/03/02 09:06:45;;;;;;;10.70;9.50;;;15.50;1.00;;;;;;5034852;28;20411;-81
2022/03/02 09:09:10;;;;;;;12.13;10.70;;;15.70;1.00;;;;;;5036436;28;20413;-84
2022/03/02 09:11:38;;;;;;;11.03;9.90;;;15.90;1.00;;;;;;5036264;28;20435;-82
2022/03/02 09:14:04;;;;;;;10.37;9.37;;;15.90;1.00;;;;;;5036571;28;20236;-83
2022/03/02 09:16:30;;;;;;;12.27;9.97;;;16.40;1.00;;;;;;5036435;28;20401;-82
2022/03/02 09:18:55;;;;;;;11.57;9.87;;;16.20;1.00;;;;;;5035799;28;20230;-84
2022/03/02 09:21:21;;;;;;;9.20;8.20;;;16.70;1.00;;;;;;5036366;28;20919;-84
2022/03/02 09:23:48;;;;;;;11.70;9.73;;;17.20;1.00;;;;;;5036312;28;20209;-84
2022/03/02 09:26:16;;;;;;;14.40;10.93;;;17.40;1.00;;;;;;5018142;28;20505;-84
2022/03/02 09:28:46;;;;;;;10.77;9.67;;;16.90;1.00;;;;;;5036153;28;20412;-83
2022/03/02 09:31:22;;;;;;;13.10;9.60;;;16.90;1.00;;;;;;5036168;28;20412;-83
2022/03/02 09:33:53;;;;;;;10.70;9.60;;;17.00;1.00;;;;;;5036338;28;20409;-84
2022/03/02 09:36:21;;;;;;;10.93;9.83;;;17.20;99.90;;;;;;5036138;28;20401;-83
2022/03/02 09:38:48;;;;;;;10.23;9.20;;;17.10;99.90;;;;;;5036082;28;20468;-84
2022/03/02 09:41:25;;;;;;;10.40;9.13;;;16.90;99.90;;;;;;5035641;28;20409;-83
2022/03/02 09:43:56;;;;;;;10.40;9.30;;;16.60;99.90;;;;;;5036035;28;20444;-83
2022/03/02 09:46:35;;;;;;;10.40;8.30;;;15.80;99.90;;;;;;5035972;28;20425;-83
2022/03/02 09:49:12;;;;;;;12.77;10.10;;;16.30;99.90;;;;;;5035896;28;20397;-83
2022/03/02 09:51:40;;;;;;;11.20;9.27;;;16.20;99.90;;;;;;5035923;28;20412;-83
2022/03/02 09:54:05;;;;;;;11.13;9.90;;;16.40;99.90;;;;;;5035610;28;20409;-83
2022/03/02 09:56:35;;;;;;;9.33;8.40;;;16.90;99.90;;;;;;5017569;28;20953;-82
2022/03/02 09:59:04;;;;;;;12.70;9.40;;;17.30;99.90;;;;;;5035664;28;20189;-83
2022/03/02 10:01:32;;;;;;;9.73;7.13;;;16.80;99.90;;;;;;5035775;28;20420;-82
2022/03/02 10:04:21;;;;;;;9.47;7.90;;;17.10;99.90;;;;;;5035621;28;20417;-82
2022/03/02 10:07:26;;;;;;;9.73;8.50;;;17.70;99.90;;;;;;5020859;28;20425;-82
2022/03/02 10:09:46;;;;;;;9.80;7.63;;;17.80;99.90;;;;;;5034933;28;20928;-81
2022/03/02 10:12:16;;;;;;;8.10;7.30;;;18.00;99.90;;;;;;5017610;28;20444;-82
2022/03/02 10:14:42;;;;;;;9.20;7.80;;;17.40;99.90;;;;;;5035365;28;20464;-81
2022/03/02 10:17:11;;;;;;;10.10;7.93;;;16.50;94.80;;;;;;5034774;28;20463;-82
2022/03/02 10:19:44;;;;;;;9.50;8.07;;;17.30;99.40;;;;;;5030788;28;20467;-82
2022/03/02 10:22:36;;;;;;;9.63;8.47;;;16.90;98.60;;;;;;5015121;28;20849;-82
2022/03/02 10:25:06;;;;;;;10.20;8.70;;;17.20;99.50;;;;;;4981040;28;20425;-82
2022/03/02 10:27:48;;;;;;;9.90;8.20;;;17.30;96.80;;;;;;5017808;28;20997;-82
2022/03/02 10:30:16;;;;;;;9.80;8.90;;;17.60;99.90;;;;;;5024882;28;20429;-83
2022/03/02 10:32:42;;;;;;;8.60;7.70;;;16.70;99.90;;;;;;5017543;28;20440;-82
2022/03/02 10:35:10;;;;;;;9.00;8.03;;;17.70;99.80;;;;;;5017254;28;20516;-82
2022/03/02 10:37:46;;;;;;;9.27;8.10;;;18.10;99.90;;;;;;5034900;28;20994;-82
2022/03/02 10:40:25;;;;;;;10.47;9.00;;;18.00;99.90;;;;;;5034579;28;20420;-82
2022/03/02 10:43:01;;;;;;;9.07;8.17;;;17.70;96.80;;;;;;5034923;28;20419;-82
2022/03/02 10:45:30;;;;;;;9.50;8.60;;;17.10;95.70;;;;;;5034966;28;20413;-82
2022/03/02 10:48:02;;;;;;;10.70;8.30;;;16.30;88.20;;;;;;5034671;28;20420;-82
2022/03/02 10:50:36;;;;;;;9.83;8.17;;;16.10;88.00;;;;;;5034999;28;20413;-82
2022/03/02 10:53:11;;;;;;;9.80;8.80;;;16.30;87.80;;;;;;5017025;28;20566;-82
2022/03/02 10:55:41;;;;;;;9.63;8.50;;;17.30;94.00;;;;;;5034372;28;20405;-82
2022/03/02 10:58:07;;;;;;;8.83;7.77;;;17.50;94.60;;;;;;5034613;28;20472;-82
2022/03/02 11:00:33;;;;;;;8.40;7.60;;;16.70;98.80;;;;;;5034541;28;20425;-82
2022/03/02 11:02:59;;;;;;;9.53;7.93;;;16.60;85.30;;;;;;5034464;28;20166;-82
2022/03/02 11:05:29;;;;;;;9.63;8.53;;;16.20;86.60;;;;;;5034267;28;20444;-82
2022/03/02 11:07:55;;;;;;;9.20;8.40;;;17.30;91.50;;;;;;5034448;28;20432;-81
2022/03/02 11:10:22;;;;;;;9.73;8.80;;;18.20;97.40;;;;;;5034063;28;20417;-83
2022/03/02 11:12:50;;;;;;;11.03;8.27;;;18.30;97.00;;;;;;5034343;28;20444;-82
2022/03/02 11:15:17;;;;;;;11.73;8.77;;;18.50;99.10;;;;;;5034283;28;20512;-82
2022/03/02 11:17:50;;;;;;;9.40;8.50;;;18.70;99.90;;;;;;5034080;28;20469;-83
2022/03/02 11:20:19;;;;;;;9.87;7.97;;;18.70;99.90;;;;;;5033856;28;20480;-82
2022/03/02 11:23:06;;;;;;;10.70;8.17;;;19.10;99.90;;;;;;5033943;28;20406;-83
2022/03/02 11:25:49;;;;;;;8.67;7.77;;;18.90;99.90;;;;;;5033616;28;20784;-83
2022/03/02 11:28:20;;;;;;;9.13;8.23;;;18.60;99.90;;;;;;5015141;28;20437;-81
2022/03/02 11:30:48;;;;;;;9.17;8.30;;;18.20;99.90;;;;;;5033079;28;20739;-82
2022/03/02 11:33:15;;;;;;;10.03;9.13;;;18.50;99.90;;;;;;5033906;28;20408;-82
2022/03/02 11:35:43;;;;;;;10.57;8.83;;;19.20;99.90;;;;;;5033830;28;20420;-83
2022/03/02 11:38:12;;;;;;;8.70;7.50;;;18.90;99.90;;;;;;5033644;28;20464;-83
2022/03/02 11:40:43;;;;;;;9.97;8.90;;;19.40;99.90;;;;;;5033448;28;20413;-83
2022/03/02 11:43:15;;;;;;;9.93;8.77;;;19.80;99.90;;;;;;5033772;28;20406;-82
2022/03/02 11:45:41;;;;;;;12.00;8.90;;;19.30;99.90;;;;;;5033672;28;20505;-84
2022/03/02 11:48:15;;;;;;;10.77;8.17;;;19.70;99.90;;;;;;5033614;28;20507;-84
2022/03/02 11:51:04;;;;;;;8.67;7.73;;;18.40;99.90;;;;;;5033435;28;20231;-84
2022/03/02 11:53:40;;;;;;;9.23;8.37;;;18.70;99.90;;;;;;5015614;28;20415;-84
2022/03/02 11:56:09;;;;;;;9.50;8.60;;;19.30;99.90;;;;;;5033152;28;20422;-83
2022/03/02 11:58:54;;;;;;;9.90;8.90;;;19.60;99.90;;;;;;5033246;28;20465;-83
2022/03/02 12:01:20;;;;;;;8.33;7.43;;;19.00;99.90;;;;;;5033188;28;20487;-83
2022/03/02 12:04:00;;;;;;;10.57;9.47;;;20.10;99.90;;;;;;5033120;28;20994;-82
2022/03/02 12:06:36;;;;;;;10.90;9.80;;;19.70;97.70;;;;;;5033186;28;20412;-82
2022/03/02 12:09:03;;;;;;;9.00;8.10;;;18.00;90.10;;;;;;5032877;28;20412;-81
2022/03/02 12:11:38;;;;;;;10.17;9.07;;;18.80;99.90;;;;;;5032756;28;20471;-81
2022/03/02 12:14:12;;;;;;;10.33;9.33;;;19.20;99.90;;;;;;5032950;28;20455;-82
2022/03/02 12:16:51;;;;;;;9.07;8.07;;;20.20;99.90;;;;;;5032884;28;20975;-82
2022/03/02 12:19:27;;;;;;;10.47;9.40;;;19.80;99.90;;;;;;5032701;28;20535;-81
2022/03/02 12:22:02;;;;;;;10.07;8.67;;;20.10;99.90;;;;;;5032703;28;20448;-81
2022/03/02 12:24:30;;;;;;;10.47;7.90;;;20.30;99.90;;;;;;5032439;28;20439;-81
2022/03/02 12:27:07;;;;;;;10.00;9.00;;;19.90;99.90;;;;;;5032700;28;20471;-81
2022/03/02 12:29:34;;;;;;;9.57;8.63;;;20.10;99.90;;;;;;5032785;28;20412;-81
2022/03/02 12:32:37;;;;;;;10.07;9.07;;;20.70;99.90;;;;;;5014918;28;20436;-82
2022/03/02 12:35:06;;;;;;;9.47;8.57;;;20.70;99.90;;;;;;5015335;28;20421;-81
2022/03/02 12:37:33;;;;;;;9.50;8.50;;;20.20;97.70;;;;;;5032394;28;20980;-81
2022/03/02 12:39:59;;;;;;;11.47;8.10;;;20.30;98.80;;;;;;5032244;28;21003;-81
2022/03/02 12:42:25;;;;;;;9.50;8.60;;;20.00;97.70;;;;;;5032316;28;20419;-81
2022/03/02 12:44:56;;;;;;;11.37;10.27;;;20.70;99.30;;;;;;5032602;28;20425;-82
2022/03/02 12:47:25;;;;;;;8.77;7.97;;;19.90;95.70;;;;;;5032510;28;20173;-81
2022/03/02 12:49:51;;;;;;;11.50;9.30;;;19.10;92.90;;;;;;5032440;28;20457;-82
2022/03/02 12:52:18;;;;;;;10.40;9.40;;;19.40;91.80;;;;;;5032349;28;20504;-81